sensor_id;sensor_type;location;lat;lon;timestamp;temperature;humidity
38941;DHT22;43236;47.208;7.518;2023-02-28T00:00:53;3.80;75.00
38941;DHT22;43236;47.208;7.518;2023-02-28T00:03:40;3.80;75.00
38941;DHT22;43236;47.208;7.518;2023-02-28T00:06:28;3.80;74.70
38941;DHT22;43236;47.208;7.518;2023-02-28T00:09:16;3.70;74.60
38941;DHT22;43236;47.208;7.518;2023-02-28T00:12:04;3.70;74.80
38941;DHT22;43236;47.208;7.518;2023-02-28T00:14:55;3.70;75.20
38941;DHT22;43236;47.208;7.518;2023-02-28T00:17:43;3.70;75.10
38941;DHT22;43236;47.208;7.518;2023-02-28T00:20:30;3.70;75.50
38941;DHT22;43236;47.208;7.518;2023-02-28T00:23:17;3.70;75.30
38941;DHT22;43236;47.208;7.518;2023-02-28T00:26:06;3.70;75.50
38941;DHT22;43236;47.208;7.518;2023-02-28T00:28:53;3.70;75.40
38941;DHT22;43236;47.208;7.518;2023-02-28T00:31:40;3.80;75.60
38941;DHT22;43236;47.208;7.518;2023-02-28T00:34:27;3.80;75.20
38941;DHT22;43236;47.208;7.518;2023-02-28T00:37:14;3.80;75.40
38941;DHT22;43236;47.208;7.518;2023-02-28T00:40:01;3.80;75.10
38941;DHT22;43236;47.208;7.518;2023-02-28T00:42:51;3.80;75.30
38941;DHT22;43236;47.208;7.518;2023-02-28T00:45:38;3.70;75.10
38941;DHT22;43236;47.208;7.518;2023-02-28T00:48:25;3.70;75.50
38941;DHT22;43236;47.208;7.518;2023-02-28T00:51:13;3.70;75.50
38941;DHT22;43236;47.208;7.518;2023-02-28T00:54:00;3.80;75.40
38941;DHT22;43236;47.208;7.518;2023-02-28T00:56:47;3.80;75.90
38941;DHT22;43236;47.208;7.518;2023-02-28T00:59:35;3.80;75.70
38941;DHT22;43236;47.208;7.518;2023-02-28T01:02:23;3.90;75.80
38941;DHT22;43236;47.208;7.518;2023-02-28T01:05:10;3.90;75.60
38941;DHT22;43236;47.208;7.518;2023-02-28T01:07:57;3.80;75.70
38941;DHT22;43236;47.208;7.518;2023-02-28T01:10:44;3.80;75.70
38941;DHT22;43236;47.208;7.518;2023-02-28T01:13:31;3.80;75.90
38941;DHT22;43236;47.208;7.518;2023-02-28T01:16:19;3.80;75.90
38941;DHT22;43236;47.208;7.518;2023-02-28T01:19:07;3.90;76.40
38941;DHT22;43236;47.208;7.518;2023-02-28T01:21:54;3.90;76.10
38941;DHT22;43236;47.208;7.518;2023-02-28T01:24:41;3.80;76.10
38941;DHT22;43236;47.208;7.518;2023-02-28T01:27:28;3.80;76.30
38941;DHT22;43236;47.208;7.518;2023-02-28T01:30:15;3.80;76.30
38941;DHT22;43236;47.208;7.518;2023-02-28T01:33:04;3.80;76.30
38941;DHT22;43236;47.208;7.518;2023-02-28T01:35:57;3.90;76.50
38941;DHT22;43236;47.208;7.518;2023-02-28T01:38:45;3.90;76.20
38941;DHT22;43236;47.208;7.518;2023-02-28T01:41:34;3.90;76.10
38941;DHT22;43236;47.208;7.518;2023-02-28T01:44:59;3.90;76.40
38941;DHT22;43236;47.208;7.518;2023-02-28T01:47:49;3.80;76.30
38941;DHT22;43236;47.208;7.518;2023-02-28T01:50:41;3.80;76.50
38941;DHT22;43236;47.208;7.518;2023-02-28T01:53:32;3.80;76.50
38941;DHT22;43236;47.208;7.518;2023-02-28T01:56:24;3.80;76.60
38941;DHT22;43236;47.208;7.518;2023-02-28T01:59:17;3.70;76.50
38941;DHT22;43236;47.208;7.518;2023-02-28T02:02:08;3.80;77.00
38941;DHT22;43236;47.208;7.518;2023-02-28T02:04:57;3.80;76.80
38941;DHT22;43236;47.208;7.518;2023-02-28T02:07:50;3.80;77.20
38941;DHT22;43236;47.208;7.518;2023-02-28T02:10:41;3.80;77.10
38941;DHT22;43236;47.208;7.518;2023-02-28T02:13:51;3.90;76.90
38941;DHT22;43236;47.208;7.518;2023-02-28T02:16:51;3.90;76.50
38941;DHT22;43236;47.208;7.518;2023-02-28T02:19:59;3.90;76.50
38941;DHT22;43236;47.208;7.518;2023-02-28T02:23:14;3.90;76.70
38941;DHT22;43236;47.208;7.518;2023-02-28T02:26:18;3.80;77.50
38941;DHT22;43236;47.208;7.518;2023-02-28T02:29:32;3.80;76.80
38941;DHT22;43236;47.208;7.518;2023-02-28T02:32:48;3.80;76.80
38941;DHT22;43236;47.208;7.518;2023-02-28T02:35:47;3.80;76.60
38941;DHT22;43236;47.208;7.518;2023-02-28T02:38:41;3.80;76.90
38941;DHT22;43236;47.208;7.518;2023-02-28T02:41:36;3.80;77.00
38941;DHT22;43236;47.208;7.518;2023-02-28T02:44:27;3.90;76.70
38941;DHT22;43236;47.208;7.518;2023-02-28T02:47:18;3.90;76.70
38941;DHT22;43236;47.208;7.518;2023-02-28T02:50:11;3.90;76.60
38941;DHT22;43236;47.208;7.518;2023-02-28T02:53:02;3.80;76.60
38941;DHT22;43236;47.208;7.518;2023-02-28T02:55:51;3.80;76.90
38941;DHT22;43236;47.208;7.518;2023-02-28T02:58:42;3.80;77.00
38941;DHT22;43236;47.208;7.518;2023-02-28T03:01:31;3.80;76.90
38941;DHT22;43236;47.208;7.518;2023-02-28T03:04:22;3.70;76.90
38941;DHT22;43236;47.208;7.518;2023-02-28T03:07:09;3.70;77.20
38941;DHT22;43236;47.208;7.518;2023-02-28T03:09:58;3.70;77.20
38941;DHT22;43236;47.208;7.518;2023-02-28T03:12:52;3.70;76.90
38941;DHT22;43236;47.208;7.518;2023-02-28T03:15:54;3.60;77.00
38941;DHT22;43236;47.208;7.518;2023-02-28T03:18:52;3.70;77.20
38941;DHT22;43236;47.208;7.518;2023-02-28T03:21:44;3.80;77.30
38941;DHT22;43236;47.208;7.518;2023-02-28T03:24:41;3.80;77.00
38941;DHT22;43236;47.208;7.518;2023-02-28T03:27:37;3.70;76.80
38941;DHT22;43236;47.208;7.518;2023-02-28T03:30:32;3.80;77.20
38941;DHT22;43236;47.208;7.518;2023-02-28T03:33:24;3.80;77.30
38941;DHT22;43236;47.208;7.518;2023-02-28T03:36:16;3.90;77.10
38941;DHT22;43236;47.208;7.518;2023-02-28T03:39:09;3.90;77.80
38941;DHT22;43236;47.208;7.518;2023-02-28T03:42:00;3.80;77.10
38941;DHT22;43236;47.208;7.518;2023-02-28T03:44:53;3.80;77.20
38941;DHT22;43236;47.208;7.518;2023-02-28T03:47:46;3.90;77.20
38941;DHT22;43236;47.208;7.518;2023-02-28T03:50:38;3.80;77.10
38941;DHT22;43236;47.208;7.518;2023-02-28T03:53:28;3.90;77.40
38941;DHT22;43236;47.208;7.518;2023-02-28T03:56:18;3.90;77.10
38941;DHT22;43236;47.208;7.518;2023-02-28T03:59:09;3.90;77.10
38941;DHT22;43236;47.208;7.518;2023-02-28T04:02:00;3.90;77.10
38941;DHT22;43236;47.208;7.518;2023-02-28T04:04:48;3.80;77.10
38941;DHT22;43236;47.208;7.518;2023-02-28T04:07:37;3.90;77.30
38941;DHT22;43236;47.208;7.518;2023-02-28T04:10:24;3.90;77.10
38941;DHT22;43236;47.208;7.518;2023-02-28T04:13:11;3.90;77.20
38941;DHT22;43236;47.208;7.518;2023-02-28T04:15:58;4.00;77.20
38941;DHT22;43236;47.208;7.518;2023-02-28T04:18:46;4.00;77.00
38941;DHT22;43236;47.208;7.518;2023-02-28T04:21:35;3.90;77.20
38941;DHT22;43236;47.208;7.518;2023-02-28T04:24:24;3.90;77.20
38941;DHT22;43236;47.208;7.518;2023-02-28T04:27:11;4.00;77.30
38941;DHT22;43236;47.208;7.518;2023-02-28T04:29:58;4.00;77.00
38941;DHT22;43236;47.208;7.518;2023-02-28T04:32:45;4.00;77.30
38941;DHT22;43236;47.208;7.518;2023-02-28T04:35:34;4.00;77.50
38941;DHT22;43236;47.208;7.518;2023-02-28T04:38:21;4.00;77.30
38941;DHT22;43236;47.208;7.518;2023-02-28T04:41:08;3.90;77.20
38941;DHT22;43236;47.208;7.518;2023-02-28T04:43:56;3.90;77.30
38941;DHT22;43236;47.208;7.518;2023-02-28T04:46:43;3.90;77.40
38941;DHT22;43236;47.208;7.518;2023-02-28T04:49:30;3.90;77.60
38941;DHT22;43236;47.208;7.518;2023-02-28T04:52:19;3.90;77.60
38941;DHT22;43236;47.208;7.518;2023-02-28T04:55:07;4.00;77.30
38941;DHT22;43236;47.208;7.518;2023-02-28T04:57:54;3.90;77.10
38941;DHT22;43236;47.208;7.518;2023-02-28T05:00:41;3.80;77.30
38941;DHT22;43236;47.208;7.518;2023-02-28T05:03:28;3.80;78.10
38941;DHT22;43236;47.208;7.518;2023-02-28T05:06:16;3.80;77.40
38941;DHT22;43236;47.208;7.518;2023-02-28T05:09:04;3.80;77.80
38941;DHT22;43236;47.208;7.518;2023-02-28T05:11:51;3.70;77.60
38941;DHT22;43236;47.208;7.518;2023-02-28T05:14:38;3.70;77.80
38941;DHT22;43236;47.208;7.518;2023-02-28T05:17:26;3.70;77.80
38941;DHT22;43236;47.208;7.518;2023-02-28T05:20:13;3.80;77.60
38941;DHT22;43236;47.208;7.518;2023-02-28T05:23:01;3.70;77.60
38941;DHT22;43236;47.208;7.518;2023-02-28T05:25:50;3.70;77.60
38941;DHT22;43236;47.208;7.518;2023-02-28T05:28:37;3.70;77.90
38941;DHT22;43236;47.208;7.518;2023-02-28T05:31:24;3.70;78.80
38941;DHT22;43236;47.208;7.518;2023-02-28T05:34:11;3.80;78.00
38941;DHT22;43236;47.208;7.518;2023-02-28T05:37:01;3.80;78.00
38941;DHT22;43236;47.208;7.518;2023-02-28T05:39:48;3.90;77.90
38941;DHT22;43236;47.208;7.518;2023-02-28T05:42:36;3.80;77.90
38941;DHT22;43236;47.208;7.518;2023-02-28T05:45:26;3.90;77.90
38941;DHT22;43236;47.208;7.518;2023-02-28T05:48:14;3.80;77.80
38941;DHT22;43236;47.208;7.518;2023-02-28T05:51:01;3.80;77.60
38941;DHT22;43236;47.208;7.518;2023-02-28T05:53:49;3.80;77.70
38941;DHT22;43236;47.208;7.518;2023-02-28T05:56:36;3.80;77.70
38941;DHT22;43236;47.208;7.518;2023-02-28T05:59:26;3.70;77.80
38941;DHT22;43236;47.208;7.518;2023-02-28T06:02:14;3.80;77.80
38941;DHT22;43236;47.208;7.518;2023-02-28T06:05:02;3.80;77.70
38941;DHT22;43236;47.208;7.518;2023-02-28T06:07:49;3.80;77.80
38941;DHT22;43236;47.208;7.518;2023-02-28T06:10:36;3.80;77.80
38941;DHT22;43236;47.208;7.518;2023-02-28T06:13:23;3.80;77.70
38941;DHT22;43236;47.208;7.518;2023-02-28T06:16:12;3.70;77.60
38941;DHT22;43236;47.208;7.518;2023-02-28T06:19:00;3.70;77.70
38941;DHT22;43236;47.208;7.518;2023-02-28T06:21:49;3.70;77.80
38941;DHT22;43236;47.208;7.518;2023-02-28T06:24:38;3.70;77.80
38941;DHT22;43236;47.208;7.518;2023-02-28T06:27:25;3.70;77.90
38941;DHT22;43236;47.208;7.518;2023-02-28T06:30:13;3.70;77.90
38941;DHT22;43236;47.208;7.518;2023-02-28T06:33:01;3.70;77.70
38941;DHT22;43236;47.208;7.518;2023-02-28T06:35:50;3.70;77.80
38941;DHT22;43236;47.208;7.518;2023-02-28T06:38:38;3.70;77.90
38941;DHT22;43236;47.208;7.518;2023-02-28T06:41:26;3.70;77.80
38941;DHT22;43236;47.208;7.518;2023-02-28T06:44:14;3.80;77.80
38941;DHT22;43236;47.208;7.518;2023-02-28T06:47:03;3.80;78.10
38941;DHT22;43236;47.208;7.518;2023-02-28T06:49:51;3.80;77.80
38941;DHT22;43236;47.208;7.518;2023-02-28T06:52:39;3.80;77.90
38941;DHT22;43236;47.208;7.518;2023-02-28T06:55:26;3.80;78.00
38941;DHT22;43236;47.208;7.518;2023-02-28T06:58:13;3.80;77.90
38941;DHT22;43236;47.208;7.518;2023-02-28T07:01:02;3.90;77.70
38941;DHT22;43236;47.208;7.518;2023-02-28T07:03:49;3.90;77.80
38941;DHT22;43236;47.208;7.518;2023-02-28T07:06:39;3.90;77.70
38941;DHT22;43236;47.208;7.518;2023-02-28T07:09:26;3.90;77.50
38941;DHT22;43236;47.208;7.518;2023-02-28T07:12:15;3.90;77.60
38941;DHT22;43236;47.208;7.518;2023-02-28T07:15:03;3.90;77.80
38941;DHT22;43236;47.208;7.518;2023-02-28T07:17:50;3.90;77.80
38941;DHT22;43236;47.208;7.518;2023-02-28T07:20:37;3.90;77.40
38941;DHT22;43236;47.208;7.518;2023-02-28T07:23:26;3.90;77.60
38941;DHT22;43236;47.208;7.518;2023-02-28T07:26:16;3.90;77.60
38941;DHT22;43236;47.208;7.518;2023-02-28T07:29:03;3.90;77.30
38941;DHT22;43236;47.208;7.518;2023-02-28T07:31:50;3.90;77.00
38941;DHT22;43236;47.208;7.518;2023-02-28T07:34:39;3.90;77.10
38941;DHT22;43236;47.208;7.518;2023-02-28T07:37:26;3.90;77.30
38941;DHT22;43236;47.208;7.518;2023-02-28T07:40:15;3.90;77.30
38941;DHT22;43236;47.208;7.518;2023-02-28T07:43:03;3.90;77.20
38941;DHT22;43236;47.208;7.518;2023-02-28T07:45:50;3.90;77.30
38941;DHT22;43236;47.208;7.518;2023-02-28T07:48:37;3.90;77.20
38941;DHT22;43236;47.208;7.518;2023-02-28T07:51:25;3.90;77.20
38941;DHT22;43236;47.208;7.518;2023-02-28T07:54:12;3.90;77.40
38941;DHT22;43236;47.208;7.518;2023-02-28T07:57:00;4.00;77.90
38941;DHT22;43236;47.208;7.518;2023-02-28T07:59:47;4.00;77.20
38941;DHT22;43236;47.208;7.518;2023-02-28T08:02:35;4.10;77.20
38941;DHT22;43236;47.208;7.518;2023-02-28T08:05:22;4.00;76.70
38941;DHT22;43236;47.208;7.518;2023-02-28T08:08:09;4.10;77.10
38941;DHT22;43236;47.208;7.518;2023-02-28T08:10:58;4.10;76.90
38941;DHT22;43236;47.208;7.518;2023-02-28T08:13:46;4.10;76.90
38941;DHT22;43236;47.208;7.518;2023-02-28T08:16:33;4.10;76.70
38941;DHT22;43236;47.208;7.518;2023-02-28T08:19:21;4.20;76.80
38941;DHT22;43236;47.208;7.518;2023-02-28T08:22:08;4.20;76.60
38941;DHT22;43236;47.208;7.518;2023-02-28T08:24:55;4.20;76.30
38941;DHT22;43236;47.208;7.518;2023-02-28T08:27:42;4.30;76.60
38941;DHT22;43236;47.208;7.518;2023-02-28T08:30:30;4.30;76.40
38941;DHT22;43236;47.208;7.518;2023-02-28T08:33:18;4.40;76.40
38941;DHT22;43236;47.208;7.518;2023-02-28T08:36:06;4.30;76.50
38941;DHT22;43236;47.208;7.518;2023-02-28T08:38:53;4.40;76.30
38941;DHT22;43236;47.208;7.518;2023-02-28T08:41:42;4.40;76.50
38941;DHT22;43236;47.208;7.518;2023-02-28T08:44:29;4.40;76.10
38941;DHT22;43236;47.208;7.518;2023-02-28T08:47:19;4.30;76.70
38941;DHT22;43236;47.208;7.518;2023-02-28T08:50:07;4.40;76.60
38941;DHT22;43236;47.208;7.518;2023-02-28T08:52:54;4.50;76.50
38941;DHT22;43236;47.208;7.518;2023-02-28T08:55:41;4.60;76.50
38941;DHT22;43236;47.208;7.518;2023-02-28T08:58:28;4.60;76.20
38941;DHT22;43236;47.208;7.518;2023-02-28T09:01:17;4.60;76.00
38941;DHT22;43236;47.208;7.518;2023-02-28T09:04:07;4.60;75.70
38941;DHT22;43236;47.208;7.518;2023-02-28T09:06:56;4.70;75.90
38941;DHT22;43236;47.208;7.518;2023-02-28T09:09:43;4.70;75.80
38941;DHT22;43236;47.208;7.518;2023-02-28T09:12:40;4.80;75.60
38941;DHT22;43236;47.208;7.518;2023-02-28T09:15:27;4.80;75.50
38941;DHT22;43236;47.208;7.518;2023-02-28T09:18:15;4.80;75.40
38941;DHT22;43236;47.208;7.518;2023-02-28T09:21:05;4.80;75.20
38941;DHT22;43236;47.208;7.518;2023-02-28T09:23:52;4.80;74.90
38941;DHT22;43236;47.208;7.518;2023-02-28T09:26:39;4.80;75.30
38941;DHT22;43236;47.208;7.518;2023-02-28T09:29:26;4.80;75.70
38941;DHT22;43236;47.208;7.518;2023-02-28T09:32:13;4.90;75.50
38941;DHT22;43236;47.208;7.518;2023-02-28T09:35:01;4.90;75.10
38941;DHT22;43236;47.208;7.518;2023-02-28T09:37:51;4.90;75.20
38941;DHT22;43236;47.208;7.518;2023-02-28T09:40:46;5.00;75.00
38941;DHT22;43236;47.208;7.518;2023-02-28T09:43:36;4.90;74.50
38941;DHT22;43236;47.208;7.518;2023-02-28T09:46:29;5.00;75.30
38941;DHT22;43236;47.208;7.518;2023-02-28T09:49:19;4.90;75.10
38941;DHT22;43236;47.208;7.518;2023-02-28T09:52:12;5.00;75.00
38941;DHT22;43236;47.208;7.518;2023-02-28T09:55:19;5.00;74.70
38941;DHT22;43236;47.208;7.518;2023-02-28T09:58:15;5.00;75.10
38941;DHT22;43236;47.208;7.518;2023-02-28T10:01:19;5.00;74.60
38941;DHT22;43236;47.208;7.518;2023-02-28T10:04:14;5.00;74.60
38941;DHT22;43236;47.208;7.518;2023-02-28T10:07:14;5.10;75.00
38941;DHT22;43236;47.208;7.518;2023-02-28T10:10:15;5.20;75.00
38941;DHT22;43236;47.208;7.518;2023-02-28T10:13:14;5.30;74.50
38941;DHT22;43236;47.208;7.518;2023-02-28T10:16:06;5.40;74.80
38941;DHT22;43236;47.208;7.518;2023-02-28T10:18:57;5.40;74.10
38941;DHT22;43236;47.208;7.518;2023-02-28T10:21:49;5.60;74.80
38941;DHT22;43236;47.208;7.518;2023-02-28T10:24:43;5.70;74.20
38941;DHT22;43236;47.208;7.518;2023-02-28T10:27:32;5.70;74.00
38941;DHT22;43236;47.208;7.518;2023-02-28T10:30:20;5.70;73.60
38941;DHT22;43236;47.208;7.518;2023-02-28T10:33:17;5.60;73.40
38941;DHT22;43236;47.208;7.518;2023-02-28T10:36:05;5.60;73.20
38941;DHT22;43236;47.208;7.518;2023-02-28T10:38:53;5.70;73.60
38941;DHT22;43236;47.208;7.518;2023-02-28T10:41:42;5.80;73.40
38941;DHT22;43236;47.208;7.518;2023-02-28T10:44:31;5.90;73.40
38941;DHT22;43236;47.208;7.518;2023-02-28T10:47:19;5.90;73.50
38941;DHT22;43236;47.208;7.518;2023-02-28T10:50:27;6.00;74.10
38941;DHT22;43236;47.208;7.518;2023-02-28T10:53:33;6.10;73.60
38941;DHT22;43236;47.208;7.518;2023-02-28T10:56:23;6.10;72.60
38941;DHT22;43236;47.208;7.518;2023-02-28T10:59:32;6.10;72.80
38941;DHT22;43236;47.208;7.518;2023-02-28T11:02:33;6.20;72.90
38941;DHT22;43236;47.208;7.518;2023-02-28T11:05:27;6.20;72.80
38941;DHT22;43236;47.208;7.518;2023-02-28T11:08:16;6.20;72.40
38941;DHT22;43236;47.208;7.518;2023-02-28T11:11:05;6.20;72.80
38941;DHT22;43236;47.208;7.518;2023-02-28T11:13:55;6.30;72.50
38941;DHT22;43236;47.208;7.518;2023-02-28T11:16:44;6.20;72.30
38941;DHT22;43236;47.208;7.518;2023-02-28T11:19:34;6.30;72.50
38941;DHT22;43236;47.208;7.518;2023-02-28T11:22:26;6.50;73.30
38941;DHT22;43236;47.208;7.518;2023-02-28T11:25:20;6.50;72.10
38941;DHT22;43236;47.208;7.518;2023-02-28T11:28:25;6.50;72.20
38941;DHT22;43236;47.208;7.518;2023-02-28T11:31:17;6.60;72.40
38941;DHT22;43236;47.208;7.518;2023-02-28T11:34:25;6.60;71.60
38941;DHT22;43236;47.208;7.518;2023-02-28T11:37:15;6.60;71.60
38941;DHT22;43236;47.208;7.518;2023-02-28T11:40:08;6.60;71.50
38941;DHT22;43236;47.208;7.518;2023-02-28T11:43:09;6.70;71.90
38941;DHT22;43236;47.208;7.518;2023-02-28T11:46:09;6.80;71.50
38941;DHT22;43236;47.208;7.518;2023-02-28T11:49:04;6.90;71.20
38941;DHT22;43236;47.208;7.518;2023-02-28T11:52:00;6.90;70.90
38941;DHT22;43236;47.208;7.518;2023-02-28T11:55:01;6.90;70.90
38941;DHT22;43236;47.208;7.518;2023-02-28T11:58:19;6.90;70.70
38941;DHT22;43236;47.208;7.518;2023-02-28T12:01:28;6.90;71.10
38941;DHT22;43236;47.208;7.518;2023-02-28T12:04:25;6.90;70.60
38941;DHT22;43236;47.208;7.518;2023-02-28T12:07:23;6.90;70.80
38941;DHT22;43236;47.208;7.518;2023-02-28T12:10:21;7.00;70.90
38941;DHT22;43236;47.208;7.518;2023-02-28T12:13:16;7.00;70.20
38941;DHT22;43236;47.208;7.518;2023-02-28T12:16:41;7.00;69.80
38941;DHT22;43236;47.208;7.518;2023-02-28T12:19:39;6.90;69.40
38941;DHT22;43236;47.208;7.518;2023-02-28T12:22:31;6.90;70.50
38941;DHT22;43236;47.208;7.518;2023-02-28T12:25:24;6.90;70.00
38941;DHT22;43236;47.208;7.518;2023-02-28T12:28:20;6.90;70.00
38941;DHT22;43236;47.208;7.518;2023-02-28T12:31:14;6.90;70.10
38941;DHT22;43236;47.208;7.518;2023-02-28T12:34:04;6.90;69.80
38941;DHT22;43236;47.208;7.518;2023-02-28T12:36:53;7.00;70.30
38941;DHT22;43236;47.208;7.518;2023-02-28T12:39:47;7.00;69.50
38941;DHT22;43236;47.208;7.518;2023-02-28T12:42:40;7.00;69.90
38941;DHT22;43236;47.208;7.518;2023-02-28T12:45:39;6.90;69.40
38941;DHT22;43236;47.208;7.518;2023-02-28T12:48:31;7.00;70.20
38941;DHT22;43236;47.208;7.518;2023-02-28T12:51:19;7.00;68.80
38941;DHT22;43236;47.208;7.518;2023-02-28T12:54:12;7.00;69.50
38941;DHT22;43236;47.208;7.518;2023-02-28T12:57:08;7.00;70.20
38941;DHT22;43236;47.208;7.518;2023-02-28T12:59:57;7.00;69.20
38941;DHT22;43236;47.208;7.518;2023-02-28T13:03:19;7.10;69.50
38941;DHT22;43236;47.208;7.518;2023-02-28T13:06:41;7.00;70.10
38941;DHT22;43236;47.208;7.518;2023-02-28T13:09:32;7.00;69.40
38941;DHT22;43236;47.208;7.518;2023-02-28T13:12:20;7.00;69.60
38941;DHT22;43236;47.208;7.518;2023-02-28T13:15:18;6.90;69.50
38941;DHT22;43236;47.208;7.518;2023-02-28T13:18:28;6.90;69.60
38941;DHT22;43236;47.208;7.518;2023-02-28T13:21:23;6.90;69.80
38941;DHT22;43236;47.208;7.518;2023-02-28T13:24:41;6.90;69.60
38941;DHT22;43236;47.208;7.518;2023-02-28T13:27:37;6.90;69.20
38941;DHT22;43236;47.208;7.518;2023-02-28T13:31:03;6.90;68.90
38941;DHT22;43236;47.208;7.518;2023-02-28T13:34:13;7.00;69.40
38941;DHT22;43236;47.208;7.518;2023-02-28T13:37:32;7.00;69.60
38941;DHT22;43236;47.208;7.518;2023-02-28T13:40:32;7.10;69.80
38941;DHT22;43236;47.208;7.518;2023-02-28T13:43:58;7.20;69.70
38941;DHT22;43236;47.208;7.518;2023-02-28T13:47:21;7.20;68.90
38941;DHT22;43236;47.208;7.518;2023-02-28T13:50:22;7.10;69.80
38941;DHT22;43236;47.208;7.518;2023-02-28T13:53:55;7.20;69.70
38941;DHT22;43236;47.208;7.518;2023-02-28T13:56:51;7.20;69.60
38941;DHT22;43236;47.208;7.518;2023-02-28T13:59:46;7.20;69.20
38941;DHT22;43236;47.208;7.518;2023-02-28T14:06:16;7.10;69.90
38941;DHT22;43236;47.208;7.518;2023-02-28T14:09:15;7.10;68.80
38941;DHT22;43236;47.208;7.518;2023-02-28T14:15:46;6.90;69.20
38941;DHT22;43236;47.208;7.518;2023-02-28T14:18:35;6.50;69.10
38941;DHT22;43236;47.208;7.518;2023-02-28T14:21:25;6.80;69.10
38941;DHT22;43236;47.208;7.518;2023-02-28T14:24:38;6.70;69.60
38941;DHT22;43236;47.208;7.518;2023-02-28T14:27:38;6.80;69.90
38941;DHT22;43236;47.208;7.518;2023-02-28T14:31:01;6.70;68.90
38941;DHT22;43236;47.208;7.518;2023-02-28T14:34:02;6.80;69.70
38941;DHT22;43236;47.208;7.518;2023-02-28T14:36:52;6.80;69.30
38941;DHT22;43236;47.208;7.518;2023-02-28T14:39:41;6.80;69.30
38941;DHT22;43236;47.208;7.518;2023-02-28T14:42:31;6.60;69.50
38941;DHT22;43236;47.208;7.518;2023-02-28T14:45:20;6.50;69.40
38941;DHT22;43236;47.208;7.518;2023-02-28T14:48:10;6.60;70.60
38941;DHT22;43236;47.208;7.518;2023-02-28T14:50:58;6.40;69.60
38941;DHT22;43236;47.208;7.518;2023-02-28T14:53:49;6.40;70.70
38941;DHT22;43236;47.208;7.518;2023-02-28T14:56:38;6.30;70.20
38941;DHT22;43236;47.208;7.518;2023-02-28T14:59:28;6.20;70.20
38941;DHT22;43236;47.208;7.518;2023-02-28T15:02:22;6.20;70.30
38941;DHT22;43236;47.208;7.518;2023-02-28T15:05:23;6.10;70.30
38941;DHT22;43236;47.208;7.518;2023-02-28T15:08:13;6.00;70.60
38941;DHT22;43236;47.208;7.518;2023-02-28T15:11:02;6.00;70.60
38941;DHT22;43236;47.208;7.518;2023-02-28T15:13:52;6.00;70.60
38941;DHT22;43236;47.208;7.518;2023-02-28T15:16:42;5.90;70.50
38941;DHT22;43236;47.208;7.518;2023-02-28T15:19:31;5.90;70.90
38941;DHT22;43236;47.208;7.518;2023-02-28T15:22:28;5.80;70.90
38941;DHT22;43236;47.208;7.518;2023-02-28T15:25:19;5.70;71.30
38941;DHT22;43236;47.208;7.518;2023-02-28T15:28:12;5.70;71.40
38941;DHT22;43236;47.208;7.518;2023-02-28T15:31:01;5.80;71.40
38941;DHT22;43236;47.208;7.518;2023-02-28T15:33:53;5.80;71.60
38941;DHT22;43236;47.208;7.518;2023-02-28T15:36:41;5.70;72.20
38941;DHT22;43236;47.208;7.518;2023-02-28T15:39:29;5.70;71.60
38941;DHT22;43236;47.208;7.518;2023-02-28T15:42:20;5.60;71.40
38941;DHT22;43236;47.208;7.518;2023-02-28T15:45:35;5.60;71.90
38941;DHT22;43236;47.208;7.518;2023-02-28T15:48:28;5.70;72.10
38941;DHT22;43236;47.208;7.518;2023-02-28T15:51:18;5.60;71.60
38941;DHT22;43236;47.208;7.518;2023-02-28T15:54:07;5.50;71.90
38941;DHT22;43236;47.208;7.518;2023-02-28T15:56:57;5.50;72.20
38941;DHT22;43236;47.208;7.518;2023-02-28T15:59:51;5.50;72.60
38941;DHT22;43236;47.208;7.518;2023-02-28T16:02:39;5.50;72.50
38941;DHT22;43236;47.208;7.518;2023-02-28T16:05:28;5.50;72.60
38941;DHT22;43236;47.208;7.518;2023-02-28T16:08:17;5.40;72.30
38941;DHT22;43236;47.208;7.518;2023-02-28T16:11:04;5.40;72.30
38941;DHT22;43236;47.208;7.518;2023-02-28T16:13:53;5.30;72.40
38941;DHT22;43236;47.208;7.518;2023-02-28T16:16:43;5.20;73.20
38941;DHT22;43236;47.208;7.518;2023-02-28T16:19:31;5.20;73.00
38941;DHT22;43236;47.208;7.518;2023-02-28T16:22:18;5.10;72.80
38941;DHT22;43236;47.208;7.518;2023-02-28T16:25:06;5.00;72.70
38941;DHT22;43236;47.208;7.518;2023-02-28T16:27:54;4.90;73.20
38941;DHT22;43236;47.208;7.518;2023-02-28T16:30:44;5.00;73.50
38941;DHT22;43236;47.208;7.518;2023-02-28T16:33:32;4.90;73.50
38941;DHT22;43236;47.208;7.518;2023-02-28T16:36:21;4.90;73.60
38941;DHT22;43236;47.208;7.518;2023-02-28T16:39:10;4.90;73.80
38941;DHT22;43236;47.208;7.518;2023-02-28T16:41:57;4.90;73.90
38941;DHT22;43236;47.208;7.518;2023-02-28T16:44:46;4.90;74.00
38941;DHT22;43236;47.208;7.518;2023-02-28T16:47:34;4.90;74.00
38941;DHT22;43236;47.208;7.518;2023-02-28T16:50:23;4.90;73.90
38941;DHT22;43236;47.208;7.518;2023-02-28T16:53:10;4.90;74.40
38941;DHT22;43236;47.208;7.518;2023-02-28T16:55:57;4.90;74.00
38941;DHT22;43236;47.208;7.518;2023-02-28T16:58:48;4.90;74.20
38941;DHT22;43236;47.208;7.518;2023-02-28T17:01:35;4.80;73.80
38941;DHT22;43236;47.208;7.518;2023-02-28T17:04:24;4.80;74.00
38941;DHT22;43236;47.208;7.518;2023-02-28T17:07:12;4.70;74.30
38941;DHT22;43236;47.208;7.518;2023-02-28T17:10:01;4.70;74.70
38941;DHT22;43236;47.208;7.518;2023-02-28T17:12:54;4.70;75.10
38941;DHT22;43236;47.208;7.518;2023-02-28T17:15:41;4.80;75.10
38941;DHT22;43236;47.208;7.518;2023-02-28T17:18:29;4.80;74.80
38941;DHT22;43236;47.208;7.518;2023-02-28T17:21:20;4.80;74.80
38941;DHT22;43236;47.208;7.518;2023-02-28T17:24:08;4.80;75.10
38941;DHT22;43236;47.208;7.518;2023-02-28T17:26:58;4.80;75.00
38941;DHT22;43236;47.208;7.518;2023-02-28T17:29:45;4.80;74.80
38941;DHT22;43236;47.208;7.518;2023-02-28T17:32:33;4.70;74.90
38941;DHT22;43236;47.208;7.518;2023-02-28T17:35:20;4.70;75.20
38941;DHT22;43236;47.208;7.518;2023-02-28T17:38:15;4.70;75.30
38941;DHT22;43236;47.208;7.518;2023-02-28T17:41:02;4.70;75.20
38941;DHT22;43236;47.208;7.518;2023-02-28T17:43:49;4.70;75.60
38941;DHT22;43236;47.208;7.518;2023-02-28T17:46:37;4.70;75.40
38941;DHT22;43236;47.208;7.518;2023-02-28T17:49:24;4.80;75.30
38941;DHT22;43236;47.208;7.518;2023-02-28T17:52:11;4.80;75.80
38941;DHT22;43236;47.208;7.518;2023-02-28T17:54:59;4.80;75.80
38941;DHT22;43236;47.208;7.518;2023-02-28T17:57:46;4.80;75.70
38941;DHT22;43236;47.208;7.518;2023-02-28T18:00:35;4.80;75.30
38941;DHT22;43236;47.208;7.518;2023-02-28T18:03:23;4.80;75.30
38941;DHT22;43236;47.208;7.518;2023-02-28T18:06:15;4.70;75.40
38941;DHT22;43236;47.208;7.518;2023-02-28T18:09:03;4.70;75.20
38941;DHT22;43236;47.208;7.518;2023-02-28T18:11:54;4.80;75.30
38941;DHT22;43236;47.208;7.518;2023-02-28T18:14:41;4.80;75.70
38941;DHT22;43236;47.208;7.518;2023-02-28T18:17:30;4.80;75.30
38941;DHT22;43236;47.208;7.518;2023-02-28T18:20:18;4.90;75.20
38941;DHT22;43236;47.208;7.518;2023-02-28T18:23:05;5.00;75.00
38941;DHT22;43236;47.208;7.518;2023-02-28T18:25:52;4.90;75.40
38941;DHT22;43236;47.208;7.518;2023-02-28T18:28:40;4.90;74.60